createdAt,value
2022-10-13T00:02:30.452Z,8.10
2022-10-13T00:05:18.951Z,6.97
2022-10-13T00:08:02.575Z,8.10
2022-10-13T00:10:33.815Z,7.33
2022-10-13T00:13:04.220Z,7.80
2022-10-13T00:15:48.316Z,7.60
2022-10-13T00:18:38.501Z,7.87
2022-10-13T00:21:23.596Z,8.07
2022-10-13T00:24:00.395Z,7.57
2022-10-13T00:26:53.436Z,8.80
2022-10-13T00:30:48.366Z,7.00
2022-10-13T00:33:15.157Z,7.40
2022-10-13T00:35:54.362Z,7.70
2022-10-13T00:38:28.280Z,8.00
2022-10-13T00:41:08.402Z,8.13
2022-10-13T00:44:29.483Z,7.97
2022-10-13T00:47:16.262Z,9.30
2022-10-13T00:49:45.416Z,8.20
2022-10-13T00:52:43.480Z,8.27
2022-10-13T00:56:21.410Z,9.83
2022-10-13T01:02:22.275Z,9.10
2022-10-13T01:05:08.349Z,9.60
2022-10-13T01:07:48.483Z,8.40
2022-10-13T01:10:40.511Z,9.17
2022-10-13T01:13:51.481Z,7.83
2022-10-13T01:16:41.496Z,7.90
2022-10-13T01:19:32.815Z,8.23
2022-10-13T01:22:32.637Z,7.30
2022-10-13T01:25:10.006Z,8.20
2022-10-13T01:28:24.413Z,7.70
2022-10-13T01:31:24.623Z,8.70
2022-10-13T01:34:35.919Z,8.37
2022-10-13T01:37:50.486Z,9.17
2022-10-13T01:40:49.185Z,8.70
2022-10-13T01:46:41.169Z,8.53
2022-10-13T01:49:34.396Z,9.20
2022-10-13T01:52:16.238Z,9.67
2022-10-13T01:54:58.175Z,9.90
2022-10-13T01:57:45.621Z,11.37
2022-10-13T02:00:34.016Z,10.50
2022-10-13T02:03:16.823Z,10.40
2022-10-13T02:06:07.605Z,11.07
2022-10-13T02:09:27.480Z,9.83
2022-10-13T02:12:16.755Z,9.60
2022-10-13T02:14:53.999Z,8.60
2022-10-13T02:17:49.409Z,9.07
2022-10-13T02:23:12.091Z,12.17
2022-10-13T02:25:39.982Z,11.13
2022-10-13T02:28:21.832Z,11.67
2022-10-13T02:31:02.075Z,10.93
2022-10-13T02:36:42.426Z,10.93
2022-10-13T02:43:04.990Z,10.80
2022-10-13T02:45:40.622Z,10.60
2022-10-13T02:48:13.376Z,10.40
2022-10-13T02:51:42.926Z,11.40
2022-10-13T02:54:07.328Z,10.83
2022-10-13T02:57:11.011Z,10.27
2022-10-13T02:59:59.009Z,10.80
2022-10-13T03:02:33.006Z,10.43
2022-10-13T03:05:18.267Z,12.17
2022-10-13T03:08:06.166Z,12.03
2022-10-13T03:11:11.804Z,11.80
2022-10-13T03:14:13.228Z,11.40
2022-10-13T03:17:13.551Z,12.00
2022-10-13T03:19:57.209Z,12.37
2022-10-13T03:23:04.914Z,12.03
2022-10-13T03:26:02.124Z,11.47
2022-10-13T03:28:28.999Z,12.23
2022-10-13T03:31:34.970Z,11.77
2022-10-13T03:34:55.384Z,9.60
2022-10-13T03:37:22.930Z,9.80
2022-10-13T03:40:10.903Z,11.67
2022-10-13T03:43:29.700Z,10.30
2022-10-13T03:47:16.779Z,10.40
2022-10-13T03:50:41.395Z,10.73
2022-10-13T03:53:28.848Z,10.47
2022-10-13T03:59:25.205Z,12.90
2022-10-13T04:02:05.292Z,10.70
2022-10-13T04:04:53.431Z,10.70
2022-10-13T04:07:26.820Z,11.67
2022-10-13T04:10:11.482Z,12.63
2022-10-13T04:16:01.856Z,10.87
2022-10-13T04:18:43.689Z,10.70
2022-10-13T04:21:59.785Z,12.37
2022-10-13T04:27:41.961Z,10.53
2022-10-13T04:30:11.512Z,12.30
2022-10-13T04:32:41.369Z,11.23
2022-10-13T04:35:09.065Z,11.63
2022-10-13T04:37:35.882Z,12.10
2022-10-13T04:40:03.081Z,11.40
2022-10-13T04:42:31.290Z,11.80
2022-10-13T04:44:57.910Z,11.87
2022-10-13T04:47:27.229Z,11.90
2022-10-13T04:50:05.590Z,12.77
2022-10-13T04:52:32.540Z,12.40
2022-10-13T04:57:40.103Z,12.43
2022-10-13T05:00:07.741Z,12.03
2022-10-13T05:02:50.536Z,10.97
2022-10-13T05:05:20.253Z,12.60
2022-10-13T05:08:26.507Z,11.40
2022-10-13T05:11:07.671Z,10.23
2022-10-13T05:13:55.833Z,11.07
2022-10-13T05:16:25.963Z,10.97
2022-10-13T05:19:10.599Z,10.70
2022-10-13T05:22:12.274Z,13.00
2022-10-13T05:28:08.479Z,12.53
2022-10-13T05:30:45.631Z,11.60
2022-10-13T05:33:20.130Z,10.43
2022-10-13T05:35:51.270Z,12.37
2022-10-13T05:38:26.758Z,10.80
2022-10-13T05:41:01.028Z,11.47
2022-10-13T05:44:25.529Z,11.03
2022-10-13T05:46:42.889Z,12.27
2022-10-13T05:49:17.362Z,12.20
2022-10-13T05:52:09.040Z,12.20
2022-10-13T05:54:42.293Z,11.30
2022-10-13T05:57:41.444Z,11.43
2022-10-13T06:00:14.226Z,11.70
2022-10-13T06:03:02.370Z,11.27
2022-10-13T06:05:39.012Z,11.60
2022-10-13T06:08:09.870Z,10.67
2022-10-13T06:10:42.755Z,11.40
2022-10-13T06:13:09.998Z,11.13
2022-10-13T06:15:36.717Z,11.57
2022-10-13T06:18:12.822Z,10.20
2022-10-13T06:20:42.870Z,10.90
2022-10-13T06:23:23.448Z,11.03
2022-10-13T06:26:04.919Z,11.97
2022-10-13T06:28:59.126Z,10.70
2022-10-13T06:31:36.203Z,12.17
2022-10-13T06:34:06.985Z,10.53
2022-10-13T06:36:38.933Z,11.70
2022-10-13T06:39:15.507Z,9.40
2022-10-13T06:41:50.650Z,11.20
2022-10-13T06:44:18.507Z,11.63
2022-10-13T06:49:51.013Z,10.57
2022-10-13T07:04:48.307Z,11.00
2022-10-13T07:07:18.089Z,10.90
2022-10-13T07:09:53.634Z,11.97
2022-10-13T07:12:23.244Z,11.07
2022-10-13T07:14:55.530Z,10.83
2022-10-13T07:17:25.064Z,11.20
2022-10-13T07:23:07.817Z,11.40
2022-10-13T07:25:37.876Z,10.93
2022-10-13T07:29:12.282Z,10.90
2022-10-13T07:35:54.294Z,12.33
2022-10-13T07:38:20.843Z,11.20
2022-10-13T07:40:48.509Z,11.30
2022-10-13T07:43:42.759Z,11.07
2022-10-13T07:46:11.347Z,11.53
2022-10-13T07:48:38.023Z,10.80
2022-10-13T07:51:32.662Z,10.63
2022-10-13T07:54:25.165Z,10.50
2022-10-13T07:57:19.747Z,11.20
2022-10-13T07:59:46.353Z,10.07
2022-10-13T08:15:29.837Z,10.50
2022-10-13T08:23:13.039Z,11.00
2022-10-13T08:29:59.888Z,9.67
2022-10-13T08:36:26.242Z,10.03
2022-10-13T08:39:02.583Z,10.60
2022-10-13T08:49:47.787Z,10.30
2022-10-13T08:53:05.541Z,9.33
2022-10-13T08:55:43.208Z,8.70
2022-10-13T08:58:27.087Z,10.00
2022-10-13T09:08:48.969Z,9.23
2022-10-13T09:27:26.318Z,10.30
2022-10-13T09:31:02.798Z,10.70
2022-10-13T09:36:32.699Z,10.27
2022-10-13T09:39:11.237Z,10.17
2022-10-13T09:41:46.285Z,9.70
2022-10-13T09:44:25.594Z,9.77
2022-10-13T09:47:47.631Z,10.20
2022-10-13T09:51:08.168Z,9.10
2022-10-13T09:56:12.909Z,10.03
2022-10-13T09:57:48.231Z,9.50
2022-10-13T10:01:00.431Z,9.87
2022-10-13T10:06:51.796Z,8.67
2022-10-13T10:10:39.370Z,9.53
2022-10-13T10:13:19.591Z,10.03
2022-10-13T10:19:37.525Z,9.30
2022-10-13T10:30:21.468Z,9.47
2022-10-13T10:47:11.428Z,9.07
2022-10-13T10:57:26.683Z,8.80
2022-10-13T11:00:53.260Z,9.23
2022-10-13T11:03:57.367Z,8.07
2022-10-13T11:07:00.540Z,9.43
2022-10-13T11:09:45.569Z,8.20
2022-10-13T11:12:56.830Z,8.00
2022-10-13T11:15:41.345Z,8.60
2022-10-13T11:19:05.422Z,9.10
2022-10-13T11:22:25.852Z,9.37
2022-10-13T11:25:09.287Z,9.00
2022-10-13T11:27:35.920Z,9.20
2022-10-13T11:30:18.264Z,9.20
2022-10-13T11:33:02.691Z,9.07
2022-10-13T11:35:38.503Z,8.77
2022-10-13T11:38:28.163Z,9.60
2022-10-13T11:40:54.852Z,9.10
2022-10-13T11:43:34.306Z,9.20
2022-10-13T11:46:07.049Z,7.97
2022-10-13T11:49:02.907Z,8.43
2022-10-13T11:51:41.586Z,8.90
2022-10-13T11:54:29.738Z,8.97
2022-10-13T11:57:14.292Z,7.97
2022-10-13T12:00:05.578Z,8.83
2022-10-13T12:02:50.874Z,9.57
2022-10-13T12:05:24.373Z,8.50
2022-10-13T12:07:52.856Z,8.60
2022-10-13T12:10:39.340Z,9.23
2022-10-13T12:13:23.308Z,7.93
2022-10-13T12:16:06.319Z,7.40
2022-10-13T12:21:27.057Z,8.30
2022-10-13T12:24:15.305Z,7.70
2022-10-13T12:26:45.345Z,7.90
2022-10-13T12:29:24.950Z,7.73
2022-10-13T12:31:58.743Z,8.27
2022-10-13T12:34:33.259Z,7.50
2022-10-13T12:37:24.535Z,8.10
2022-10-13T12:39:58.856Z,8.03
2022-10-13T12:42:41.330Z,7.60
2022-10-13T12:45:44.487Z,8.03
2022-10-13T12:48:37.627Z,6.93
2022-10-13T12:51:37.502Z,7.73
2022-10-13T12:54:22.598Z,7.93
2022-10-13T12:56:59.620Z,7.17
2022-10-13T12:59:28.129Z,6.93
2022-10-13T13:01:58.004Z,6.90
2022-10-13T13:04:31.205Z,6.80
2022-10-13T13:07:01.145Z,6.80
2022-10-13T13:09:35.569Z,6.20
2022-10-13T13:12:23.218Z,6.80
2022-10-13T13:14:53.227Z,7.33
2022-10-13T13:20:37.862Z,6.70
2022-10-13T13:23:05.590Z,6.90
2022-10-13T13:25:33.747Z,6.50
2022-10-13T13:28:10.948Z,6.10
2022-10-13T13:30:37.517Z,6.80
2022-10-13T13:33:13.230Z,6.10
2022-10-13T13:35:39.872Z,6.20
2022-10-13T13:38:08.447Z,6.10
2022-10-13T13:40:42.874Z,6.70
2022-10-13T13:43:12.301Z,5.93
2022-10-13T13:45:53.346Z,7.10
2022-10-13T13:48:20.053Z,6.07
2022-10-13T13:51:00.666Z,5.60
2022-10-13T13:53:27.569Z,6.00
2022-10-13T13:55:54.496Z,6.00
2022-10-13T13:58:28.755Z,5.37
2022-10-13T14:01:11.736Z,6.87
2022-10-13T14:03:38.768Z,6.93
2022-10-13T14:06:07.833Z,5.70
2022-10-13T14:08:43.417Z,5.30
2022-10-13T14:11:10.296Z,5.73
2022-10-13T14:13:37.123Z,5.73
2022-10-13T14:16:04.475Z,5.10
2022-10-13T14:18:33.444Z,5.07
2022-10-13T14:21:07.380Z,5.70
2022-10-13T14:23:56.100Z,13.30
2022-10-13T14:26:31.934Z,5.47
2022-10-13T14:29:03.929Z,5.07
2022-10-13T14:31:30.836Z,5.47
2022-10-13T14:34:03.593Z,5.97
2022-10-13T14:36:32.613Z,8.40
2022-10-13T14:38:59.314Z,6.70
2022-10-13T14:41:31.500Z,7.80
2022-10-13T14:43:58.204Z,5.70
2022-10-13T14:46:28.228Z,6.10
2022-10-13T14:49:04.150Z,5.70
2022-10-13T14:51:36.372Z,5.27
2022-10-13T14:54:04.441Z,6.07
2022-10-13T14:56:34.504Z,5.37
2022-10-13T14:59:06.006Z,8.50
2022-10-13T15:02:02.816Z,4.93
2022-10-13T15:07:20.351Z,5.00
2022-10-13T15:09:53.055Z,6.00
2022-10-13T15:12:28.159Z,4.43
2022-10-13T15:15:01.282Z,4.27
2022-10-13T15:17:29.465Z,5.77
2022-10-13T15:19:56.357Z,4.77
2022-10-13T15:22:23.395Z,4.60
2022-10-13T15:24:50.270Z,4.70
2022-10-13T15:27:17.101Z,4.10
2022-10-13T15:29:43.709Z,4.40
2022-10-13T15:32:17.657Z,4.57
2022-10-13T15:34:49.573Z,4.70
2022-10-13T15:37:16.182Z,4.40
2022-10-13T15:39:42.887Z,4.57
2022-10-13T15:42:10.769Z,4.63
2022-10-13T15:45:04.677Z,4.40
2022-10-13T15:47:24.142Z,5.53
2022-10-13T15:49:50.677Z,5.53
2022-10-13T15:52:17.316Z,7.13
2022-10-13T15:54:44.043Z,6.60
2022-10-13T15:57:12.132Z,6.77
2022-10-13T15:59:38.814Z,8.17
2022-10-13T16:02:12.752Z,6.40
2022-10-13T16:04:39.354Z,6.30
2022-10-13T16:07:06.049Z,6.00
2022-10-13T16:09:32.610Z,5.60
2022-10-13T16:11:59.233Z,6.53
2022-10-13T16:14:25.787Z,7.73
2022-10-13T16:16:52.447Z,6.43
2022-10-13T16:19:19.019Z,6.20
2022-10-13T16:21:46.844Z,7.93
2022-10-13T16:24:14.494Z,7.40
2022-10-13T16:26:46.215Z,8.10
2022-10-13T16:29:12.820Z,8.43
2022-10-13T16:31:39.402Z,8.73
2022-10-13T16:34:07.029Z,9.40
2022-10-13T16:36:33.639Z,9.03
2022-10-13T16:39:02.571Z,8.80
2022-10-13T16:41:29.117Z,9.07
2022-10-13T16:43:55.773Z,9.30
2022-10-13T16:46:24.845Z,9.37
2022-10-13T16:48:56.699Z,10.10
2022-10-13T16:51:27.270Z,9.57
2022-10-13T16:53:58.717Z,9.57
2022-10-13T16:56:29.906Z,10.20
2022-10-13T16:58:59.703Z,11.10
2022-10-13T17:01:26.869Z,9.97
2022-10-13T17:03:53.637Z,10.33
2022-10-13T17:06:22.521Z,11.50
2022-10-13T17:08:54.668Z,11.53
2022-10-13T17:11:23.706Z,11.37
2022-10-13T17:13:52.208Z,11.00
2022-10-13T17:16:19.464Z,11.63
2022-10-13T17:18:46.477Z,11.70
2022-10-13T17:21:15.104Z,12.70
2022-10-13T17:23:47.388Z,13.17
2022-10-13T17:26:16.650Z,12.50
2022-10-13T17:28:43.298Z,12.60
2022-10-13T17:31:16.473Z,13.70
2022-10-13T17:33:43.842Z,14.17
2022-10-13T17:36:17.947Z,12.97
2022-10-13T17:38:45.458Z,12.80
2022-10-13T17:41:16.134Z,13.37
2022-10-13T17:43:50.121Z,13.97
2022-10-13T17:46:36.103Z,13.40
2022-10-13T17:49:04.290Z,12.93
2022-10-13T17:51:30.839Z,14.03
2022-10-13T17:53:58.834Z,14.20
2022-10-13T17:56:25.662Z,12.97
2022-10-13T17:58:52.811Z,14.10
2022-10-13T18:01:25.444Z,12.67
2022-10-13T18:03:57.385Z,13.77
2022-10-13T18:06:37.704Z,13.80
2022-10-13T18:09:12.719Z,12.73
2022-10-13T18:11:41.774Z,13.63
2022-10-13T18:14:10.004Z,14.10
2022-10-13T18:16:46.443Z,14.53
2022-10-13T18:19:13.433Z,14.17
2022-10-13T18:21:40.263Z,14.93
2022-10-13T18:24:07.248Z,15.10
2022-10-13T18:26:36.726Z,13.50
2022-10-13T18:29:04.956Z,15.30
2022-10-13T18:31:34.694Z,14.77
2022-10-13T18:34:03.678Z,14.10
2022-10-13T18:36:35.708Z,14.60
2022-10-13T18:39:14.599Z,15.57
2022-10-13T18:41:44.865Z,15.77
2022-10-13T18:44:11.722Z,16.10
2022-10-13T18:46:39.213Z,15.87
2022-10-13T18:49:07.241Z,16.13
2022-10-13T18:51:36.462Z,15.67
2022-10-13T18:54:03.924Z,15.83
2022-10-13T18:56:31.792Z,16.03
2022-10-13T18:59:01.041Z,16.97
2022-10-13T19:01:30.411Z,16.30
2022-10-13T19:03:57.245Z,16.77
2022-10-13T19:06:26.921Z,15.50
2022-10-13T19:08:58.608Z,13.80
2022-10-13T19:11:25.359Z,15.23
2022-10-13T19:13:56.471Z,14.63
2022-10-13T19:16:29.709Z,14.87
2022-10-13T19:18:58.864Z,14.17
2022-10-13T19:21:25.872Z,12.20
2022-10-13T19:23:58.672Z,13.60
2022-10-13T19:26:28.832Z,14.00
2022-10-13T19:29:13.995Z,13.30
2022-10-13T19:31:41.517Z,13.63
2022-10-13T19:34:09.165Z,15.17
2022-10-13T19:36:39.035Z,14.30
2022-10-13T19:39:11.673Z,14.40
2022-10-13T19:41:39.183Z,13.37
2022-10-13T19:44:06.013Z,15.07
2022-10-13T19:46:40.006Z,15.20
2022-10-13T19:49:06.944Z,14.60
2022-10-13T19:51:35.118Z,14.43
2022-10-13T19:54:02.152Z,14.43
2022-10-13T19:56:31.602Z,13.63
2022-10-13T19:58:58.770Z,14.80
2022-10-13T20:01:25.330Z,13.27
2022-10-13T20:03:52.071Z,14.10
2022-10-13T20:06:26.602Z,13.33
2022-10-13T20:09:00.437Z,13.47
2022-10-13T20:11:36.475Z,13.13
2022-10-13T20:14:03.648Z,13.10
2022-10-13T20:16:30.486Z,14.20
2022-10-13T20:18:58.656Z,13.83
2022-10-13T20:21:26.497Z,13.23
2022-10-13T20:24:03.835Z,13.53
2022-10-13T20:26:36.113Z,13.20
2022-10-13T20:29:03.110Z,11.93
2022-10-13T20:31:32.579Z,14.63
2022-10-13T20:34:13.386Z,13.33
2022-10-13T20:36:55.813Z,13.50
2022-10-13T20:39:22.443Z,13.63
2022-10-13T20:41:49.122Z,13.63
2022-10-13T20:44:17.099Z,14.37
2022-10-13T20:46:43.913Z,14.00
2022-10-13T20:49:12.272Z,13.40
2022-10-13T20:51:39.935Z,13.37
2022-10-13T20:54:06.839Z,14.00
2022-10-13T20:56:43.386Z,14.03
2022-10-13T20:59:12.421Z,13.30
2022-10-13T21:01:39.063Z,15.03
2022-10-13T21:04:11.446Z,15.40
2022-10-13T21:06:38.553Z,13.90
2022-10-13T21:09:08.095Z,13.50
2022-10-13T21:11:42.735Z,14.13
2022-10-13T21:14:10.421Z,14.23
2022-10-13T21:16:37.735Z,13.87
2022-10-13T21:19:14.013Z,14.27
2022-10-13T21:21:44.032Z,13.40
2022-10-13T21:24:13.891Z,14.03
2022-10-13T21:26:45.597Z,13.63
2022-10-13T21:29:24.578Z,13.90
2022-10-13T21:31:51.268Z,13.97
2022-10-13T21:34:17.842Z,14.17
2022-10-13T21:36:45.433Z,13.57
2022-10-13T21:39:16.054Z,15.10
2022-10-13T21:41:51.677Z,14.70
2022-10-13T21:44:18.227Z,14.77
2022-10-13T21:46:44.920Z,14.00
2022-10-13T21:49:17.590Z,13.67
2022-10-13T21:51:44.326Z,14.87
2022-10-13T21:54:12.201Z,14.83
2022-10-13T21:56:42.069Z,14.43
2022-10-13T21:59:23.106Z,14.77
2022-10-13T22:01:51.772Z,14.07
2022-10-13T22:04:21.562Z,15.30
2022-10-13T22:06:51.006Z,14.30
2022-10-13T22:09:24.933Z,14.00
2022-10-13T22:11:58.468Z,15.07
2022-10-13T22:14:35.140Z,14.80
2022-10-13T22:17:04.866Z,14.00
2022-10-13T22:19:33.911Z,14.50
2022-10-13T22:22:18.302Z,14.10
2022-10-13T22:24:52.424Z,14.67
2022-10-13T22:27:24.375Z,15.23
2022-10-13T22:29:55.761Z,13.90
2022-10-13T22:32:22.351Z,14.93
2022-10-13T22:34:49.071Z,15.30
2022-10-13T22:37:15.895Z,14.90
2022-10-13T22:39:42.573Z,15.47
2022-10-13T22:42:15.107Z,15.73
2022-10-13T22:44:52.147Z,14.33
2022-10-13T22:47:22.209Z,16.00
2022-10-13T22:49:53.767Z,14.90
2022-10-13T22:52:29.142Z,15.10
2022-10-13T22:54:55.800Z,15.80
2022-10-13T22:57:39.921Z,15.67
2022-10-13T23:00:10.686Z,15.77
2022-10-13T23:02:53.505Z,15.10
2022-10-13T23:05:28.917Z,14.73
2022-10-13T23:08:03.096Z,15.97
2022-10-13T23:10:37.546Z,16.33
2022-10-13T23:13:23.860Z,15.83
2022-10-13T23:16:12.521Z,16.83
2022-10-13T23:18:51.312Z,16.43
2022-10-13T23:21:43.789Z,16.10
2022-10-13T23:24:19.521Z,16.53
2022-10-13T23:27:01.105Z,16.83
2022-10-13T23:29:35.250Z,16.90
2022-10-13T23:32:10.047Z,18.90
2022-10-13T23:34:49.495Z,18.27
2022-10-13T23:37:23.252Z,19.20
2022-10-13T23:39:57.186Z,18.00
2022-10-13T23:42:46.692Z,19.50
2022-10-13T23:45:15.805Z,18.80
2022-10-13T23:47:45.524Z,20.00
2022-10-13T23:50:17.782Z,19.23
2022-10-13T23:53:08.604Z,19.30
2022-10-13T23:55:46.734Z,20.20
2022-10-13T23:58:16.117Z,18.83
